sensor_id;sensor_type;location;lat;lon;timestamp;pressure;altitude;pressure_sealevel;temperature;humidity
71642;BME280;60657;50.122;14.468;2022-08-11T00:02:32;99004.16797282938;;;21.157396810864427;48.57579919127184
71642;BME280;60657;50.122;14.468;2022-08-11T00:05:44;98998.2750065941;;;21.176089112687876;48.5662623025864
71642;BME280;60657;50.122;14.468;2022-08-11T00:08:55;99009.32516864181;;;21.12802319371329;48.514763103685056
71642;BME280;60657;50.122;14.468;2022-08-11T00:12:05;99003.19933222716;;;21.176089112687876;48.560540169375145
71642;BME280;60657;50.122;14.468;2022-08-11T00:15:26;99004.39971746449;;;21.069275959411;48.67307545586328
71642;BME280;60657;50.122;14.468;2022-08-11T00:18:44;98995.00759411672;;;21.093308918898302;48.663538567177845
71642;BME280;60657;50.122;14.468;2022-08-11T00:21:55;99004.3072879753;;;21.07995727473869;48.951552605477985
71642;BME280;60657;50.122;14.468;2022-08-11T00:25:07;99002.46427758978;;;21.117341878385602;48.73601892118715
71642;BME280;60657;50.122;14.468;2022-08-11T00:28:25;98999.97868603282;;;21.095979247730227;48.951552605477985
71642;BME280;60657;50.122;14.468;2022-08-11T00:31:35;99018.29708330632;;;20.930418860151065;49.5390249485008
71642;BME280;60657;50.122;14.468;2022-08-11T00:34:44;99017.08518382614;;;20.812924391546503;49.691615167467766
71642;BME280;60657;50.122;14.468;2022-08-11T00:37:55;98999.76676775378;;;20.708781567101553;50.288624399176015
71642;BME280;60657;50.122;14.468;2022-08-11T00:41:09;99006.17324259909;;;20.54856183718624;50.641489280537115
71642;BME280;60657;50.122;14.468;2022-08-11T00:44:28;99001.98568748203;;;20.53521019302663;50.715877012283514
71642;BME280;60657;50.122;14.468;2022-08-11T00:47:50;99009.9107827088;;;20.42572671091783;51.24422064545663
71642;BME280;60657;50.122;14.468;2022-08-11T00:51:12;99011.94092448112;;;20.281528953994055;51.549401083390556
71642;BME280;60657;50.122;14.468;2022-08-11T00:54:40;99011.315137283;;;20.228122377355618;51.86030365453574
71642;BME280;60657;50.122;14.468;2022-08-11T01:00:02;99010.96490729644;;;19.969100480659193;52.47257190814069
71642;BME280;60657;50.122;14.468;2022-08-11T01:03:18;99013.49245585699;;;20.04119935912108;52.415350576028075
71642;BME280;60657;50.122;14.468;2022-08-11T01:06:55;99006.97464441234;;;19.93705653467613;52.71862363622492
71642;BME280;60657;50.122;14.468;2022-08-11T01:10:38;99001.92022767273;;;19.923704890516518;52.74341954680705
71642;BME280;60657;50.122;14.468;2022-08-11T01:14:17;99015.3079544878;;;19.953078507667655;52.68047608148318
71642;BME280;60657;50.122;14.468;2022-08-11T01:17:54;99007.09118323596;;;19.835584039063093;52.983749141680015
71642;BME280;60657;50.122;14.468;2022-08-11T01:22:08;99008.75007095747;;;19.90501258869307;52.588921950103
71642;BME280;60657;50.122;14.468;2022-08-11T01:25:47;99018.85838788895;;;19.910353246356905;53.03524834058137
71642;BME280;60657;50.122;14.468;2022-08-11T01:29:27;99026.66797622084;;;19.816891737239644;53.14206149385824
71642;BME280;60657;50.122;14.468;2022-08-11T01:33:22;99022.74459657581;;;19.696726939803156;53.90691996643015
71642;BME280;60657;50.122;14.468;2022-08-11T01:37:15;99019.6472408434;;;19.55786984054322;54.41809719996948
71642;BME280;60657;50.122;14.468;2022-08-11T01:41:05;99008.1764872091;;;19.451056687266345;54.74425879301137
71642;BME280;60657;50.122;14.468;2022-08-11T01:44:39;99016.14267801149;;;19.253452353704134;55.478599221789885
71642;BME280;60657;50.122;14.468;2022-08-11T01:48:12;99007.98266483717;;;19.21606775005722;55.5358205539025
71642;BME280;60657;50.122;14.468;2022-08-11T01:51:32;99016.90241539819;;;19.309529259174482;55.282139314869916
71642;BME280;60657;50.122;14.468;2022-08-11T01:54:56;99009.22150159898;;;19.36293583581292;55.07232776379034
71642;BME280;60657;50.122;14.468;2022-08-11T01:58:22;99013.47710834096;;;19.354924849317158;54.963607232776376
71642;BME280;60657;50.122;14.468;2022-08-11T02:01:42;99015.85996535102;;;19.378957808804458;55.078049897001605
71642;BME280;60657;50.122;14.468;2022-08-11T02:05:06;99011.67521121292;;;19.36293583581292;55.14671549553674
71642;BME280;60657;50.122;14.468;2022-08-11T02:08:33;99001.89488191537;;;19.256122682536045;55.30693522545205
71642;BME280;60657;50.122;14.468;2022-08-11T02:11:51;99001.20501007924;;;19.151979858091096;55.7704280155642
71642;BME280;60657;50.122;14.468;2022-08-11T02:15:11;99000.37517248162;;;19.117265583276108;55.757076371404594
71642;BME280;60657;50.122;14.468;2022-08-11T02:18:31;99001.34352112569;;;19.13061722743572;55.497672999160756
71642;BME280;60657;50.122;14.468;2022-08-11T02:21:45;99001.41224489278;;;19.074540321965358;55.59494926375219
71642;BME280;60657;50.122;14.468;2022-08-11T02:25:05;99005.66435340609;;;19.09857328145266;55.78187228198672
71642;BME280;60657;50.122;14.468;2022-08-11T02:28:21;99002.27638454056;;;19.05584802014191;55.76470588235294
71642;BME280;60657;50.122;14.468;2022-08-11T02:31:40;99006.62986089273;;;18.997100785839628;55.961165789272904
71642;BME280;60657;50.122;14.468;2022-08-11T02:35:00;99013.43774022776;;;18.975738155184253;56.159533073929964
71642;BME280;60657;50.122;14.468;2022-08-11T02:38:20;99006.66352933507;;;19.015793087663084;55.94590676737621
71642;BME280;60657;50.122;14.468;2022-08-11T02:41:39;99003.543472673;;;18.831540398260472;56.384603646906235
71642;BME280;60657;50.122;14.468;2022-08-11T02:45:05;99011.17862310007;;;18.836881055924316;56.41321431296254
71642;BME280;60657;50.122;14.468;2022-08-11T02:48:37;99002.77933892765;;;18.879606317235066;56.26443884946975
71642;BME280;60657;50.122;14.468;2022-08-11T02:52:01;99002.68034195325;;;18.88494697489891;55.95544365606165
71642;BME280;60657;50.122;14.468;2022-08-11T02:55:17;99006.19793114299;;;18.836881055924316;56.104219119554436
71642;BME280;60657;50.122;14.468;2022-08-11T02:58:35;98999.62214819282;;;18.764782177462422;56.5219348439765
71642;BME280;60657;50.122;14.468;2022-08-11T03:01:57;99000.48459664187;;;18.79148546578164;56.44563973449302
71642;BME280;60657;50.122;14.468;2022-08-11T03:05:17;98997.16418324354;;;18.762111848630504;56.46471351186389
71642;BME280;60657;50.122;14.468;2022-08-11T03:08:50;98999.0165053346;;;18.722056916151672;56.26634622720684
71642;BME280;60657;50.122;14.468;2022-08-11T03:12:09;99000.74021048757;;;18.668650339513235;56.493324177920194
71642;BME280;60657;50.122;14.468;2022-08-11T03:15:26;99000.67683767804;;;18.657969024185547;56.512397955291064
71642;BME280;60657;50.122;14.468;2022-08-11T03:18:40;99005.43291181172;;;18.735408560311285;56.65163653009842
71642;BME280;60657;50.122;14.468;2022-08-11T03:22:11;99005.59407297862;;;18.67399099717708;56.68978408484016
71642;BME280;60657;50.122;14.468;2022-08-11T03:25:29;98998.95281833864;;;18.633936064698254;57.17425803006027
71642;BME280;60657;50.122;14.468;2022-08-11T03:28:49;99007.3818371873;;;18.657969024185547;56.55436026550698
71642;BME280;60657;50.122;14.468;2022-08-11T03:32:08;99009.35482591818;;;18.564507515068286;57.24864576180667
71642;BME280;60657;50.122;14.468;2022-08-11T03:35:28;99006.92526212444;;;18.447013046463724;57.4794384679942
71642;BME280;60657;50.122;14.468;2022-08-11T03:38:46;99011.34929015509;;;18.34019989318685;57.83421072709239
71642;BME280;60657;50.122;14.468;2022-08-11T03:42:13;99013.75055312338;;;18.37224383916991;57.49660486762799
71642;BME280;60657;50.122;14.468;2022-08-11T03:45:34;99016.12038103776;;;18.455024032959486;57.288700694285495
71642;BME280;60657;50.122;14.468;2022-08-11T03:48:59;99016.18128063134;;;18.447013046463724;57.22003509575036
71642;BME280;60657;50.122;14.468;2022-08-11T03:52:22;99022.20508513223;;;18.366903181506068;57.502327000839244
71642;BME280;60657;50.122;14.468;2022-08-11T03:55:54;99029.88689872732;;;18.34019989318685;57.645380331120776
71642;BME280;60657;50.122;14.468;2022-08-11T03:59:46;99021.2847793632;;;18.409628442816818;57.36690318150607
71642;BME280;60657;50.122;14.468;2022-08-11T04:03:24;99021.404341408;;;18.39894712748913;57.39551384756237
71642;BME280;60657;50.122;14.468;2022-08-11T04:06:52;99024.8740710169;;;18.326848249027236;57.6568245975433
71642;BME280;60657;50.122;14.468;2022-08-11T04:10:36;99029.026979876;;;18.34821087968261;57.74265659571221
71642;BME280;60657;50.122;14.468;2022-08-11T04:14:10;99022.32362668427;;;18.35622186617838;57.89715419241627
71642;BME280;60657;50.122;14.468;2022-08-11T04:17:44;99019.86139884968;;;18.2734416723888;58.000152590218974
71642;BME280;60657;50.122;14.468;2022-08-11T04:21:06;99024.75611780217;;;18.43366140230411;57.91622796978714
71642;BME280;60657;50.122;14.468;2022-08-11T04:24:48;99019.62384547856;;;18.449683375295642;58.122224765392545
71642;BME280;60657;50.122;14.468;2022-08-11T04:28:23;99008.58593363596;;;18.516441596093692;58.3186846723125
71642;BME280;60657;50.122;14.468;2022-08-11T04:31:58;99026.20723531487;;;18.492408636606392;58.625772487983525
71642;BME280;60657;50.122;14.468;2022-08-11T04:35:25;99020.66575841296;;;18.703364614328223;57.75028610666056
71642;BME280;60657;50.122;14.468;2022-08-11T04:39:06;99029.34550350798;;;18.599221789883266;57.88761730373083
71642;BME280;60657;50.122;14.468;2022-08-11T04:42:45;99018.48858961825;;;18.62859540703441;57.7445639734493
71642;BME280;60657;50.122;14.468;2022-08-11T04:46:51;99018.20671678428;;;18.79949645227741;57.47371633478294
71642;BME280;60657;50.122;14.468;2022-08-11T04:50:19;99017.98252904354;;;18.81551842526894;57.883802548256654
71642;BME280;60657;50.122;14.468;2022-08-11T04:53:45;99019.86726845078;;;18.794155794613566;57.336385137712675
71642;BME280;60657;50.122;14.468;2022-08-11T04:57:07;99018.7478639831;;;18.97840848401617;57.04074158846418
71642;BME280;60657;50.122;14.468;2022-08-11T05:00:29;99017.58811713404;;;19.08789196612497;56.87098496986343
71642;BME280;60657;50.122;14.468;2022-08-11T05:03:50;99012.16677760372;;;19.290836957351033;56.344548714427404
71642;BME280;60657;50.122;14.468;2022-08-11T05:07:22;99017.8024880108;;;19.408331425955595;56.13664454108492
71642;BME280;60657;50.122;14.468;2022-08-11T05:11:02;99014.48288183188;;;19.354924849317158;56.17288471808957
71642;BME280;60657;50.122;14.468;2022-08-11T05:14:29;99008.3203234279;;;19.42969405661097;56.83283741512169
71642;BME280;60657;50.122;14.468;2022-08-11T05:17:41;99011.65944288521;;;19.74212252994583;55.74372472724498
71642;BME280;60657;50.122;14.468;2022-08-11T05:21:05;99016.3283119999;;;19.485770962081332;56.79468986037995
71642;BME280;60657;50.122;14.468;2022-08-11T05:24:19;99013.83915152762;;;19.63263904783703;56.42656595712215
71642;BME280;60657;50.122;14.468;2022-08-11T05:27:32;99012.75140172867;;;19.74212252994583;56.04127565423057
71642;BME280;60657;50.122;14.468;2022-08-11T05:30:45;99017.54203567939;;;19.811551079575793;56.31212329289693
71642;BME280;60657;50.122;14.468;2022-08-11T05:33:57;99012.75140172867;;;19.75280384527352;56.680247196154724
71642;BME280;60657;50.122;14.468;2022-08-11T05:37:10;99013.84279591149;;;19.84626535439078;56.46089875638972
71642;BME280;60657;50.122;14.468;2022-08-11T05:40:26;99017.15803904536;;;19.592584115358207;57.64728770885786
71642;BME280;60657;50.122;14.468;2022-08-11T05:43:39;99021.12235792298;;;19.64866102082857;57.89906157015335
71642;BME280;60657;50.122;14.468;2022-08-11T05:46:50;99019.2194197891;;;20.08392462043183;56.70504310673686
71642;BME280;60657;50.122;14.468;2022-08-11T05:50:00;99020.10986028606;;;20.34828717479209;55.88105592431525
71642;BME280;60657;50.122;14.468;2022-08-11T05:53:16;99019.86052852905;;;20.412375066758216;55.79713130388342
71642;BME280;60657;50.122;14.468;2022-08-11T05:56:25;99008.53213821766;;;20.599298084992753;55.33936064698253
71642;BME280;60657;50.122;14.468;2022-08-11T05:59:34;99007.57422695076;;;20.51918822003509;55.366063935301746
71642;BME280;60657;50.122;14.468;2022-08-11T06:02:43;99008.31676981247;;;20.650034332799265;55.56633859769589
71642;BME280;60657;50.122;14.468;2022-08-11T06:05:59;99012.7192727293;;;20.812924391546503;54.9750514991989
71642;BME280;60657;50.122;14.468;2022-08-11T06:09:15;99013.42013837791;;;20.73281452658884;55.4461738002594
71642;BME280;60657;50.122;14.468;2022-08-11T06:12:31;99012.11187214818;;;20.82360570687419;55.226825360494395
71642;BME280;60657;50.122;14.468;2022-08-11T06:15:43;99016.45870891788;;;21.058594644083314;54.805294880598154
71642;BME280;60657;50.122;14.468;2022-08-11T06:18:53;99010.42040269286;;;21.432440680552375;53.79438467994201
71642;BME280;60657;50.122;14.468;2022-08-11T06:22:02;99019.83477265674;;;21.611352712291136;53.191653315022506
71642;BME280;60657;50.122;14.468;2022-08-11T06:25:13;99018.76288581871;;;21.64873731593805;52.81208514534218
71642;BME280;60657;50.122;14.468;2022-08-11T06:28:28;99019.16816702114;;;22.16945143816281;52.03578240634776
71642;BME280;60657;50.122;14.468;2022-08-11T06:31:39;99014.09273088815;;;22.428473334859234;51.211795223926146
71642;BME280;60657;50.122;14.468;2022-08-11T06:34:53;99003.6419183477;;;22.759594110017545;50.44121461814298
71642;BME280;60657;50.122;14.468;2022-08-11T06:38:11;99008.71332344529;;;23.064011596856645;49.77935454337377
71642;BME280;60657;50.122;14.468;2022-08-11T06:41:32;99003.55188133036;;;23.301670862897694;49.20714122224766
71642;BME280;60657;50.122;14.468;2022-08-11T06:44:53;99013.60661760322;;;23.58205539024948;49.205233844510566
71642;BME280;60657;50.122;14.468;2022-08-11T06:48:14;99012.56364797444;;;24.07072556649119;47.53055619134813
71642;BME280;60657;50.122;14.468;2022-08-11T06:51:24;99006.0917291379;;;24.078736552986953;47.28068970778973
71642;BME280;60657;50.122;14.468;2022-08-11T06:54:35;99007.61972488994;;;24.086747539482715;47.79949645227741
71642;BME280;60657;50.122;14.468;2022-08-11T06:57:46;99006.58522442903;;;24.642175936522463;47.11856260013733
71642;BME280;60657;50.122;14.468;2022-08-11T07:00:54;99010.70272614759;;;25.074769207293812;45.86732280460822
71642;BME280;60657;50.122;14.468;2022-08-11T07:04:08;99001.06800246648;;;25.33112077515831;43.471656366826885
71642;BME280;60657;50.122;14.468;2022-08-11T07:07:26;99002.27852556822;;;25.632867933165485;44.04005493247883
71642;BME280;60657;50.122;14.468;2022-08-11T07:11:18;98998.22749754776;;;26.18028534370947;42.33676661326009
71642;BME280;60657;50.122;14.468;2022-08-11T07:14:51;99000.18172868383;;;26.287098496986346;42.186083772030216
71642;BME280;60657;50.122;14.468;2022-08-11T07:18:01;98997.85526184175;;;26.078812848096433;41.549019607843135
71642;BME280;60657;50.122;14.468;2022-08-11T07:21:15;98989.45259834934;;;26.158922713054096;41.33730067902648
71642;BME280;60657;50.122;14.468;2022-08-11T07:24:31;98997.48074101502;;;26.142900740062558;40.38933394369421
71642;BME280;60657;50.122;14.468;2022-08-11T07:27:45;98994.59380742935;;;26.58350499732967;40.86427100022888
71642;BME280;60657;50.122;14.468;2022-08-11T07:31:07;98988.86401029785;;;26.65827420462348;41.01686121919585
71642;BME280;60657;50.122;14.468;2022-08-11T07:34:21;98997.26980845767;;;26.68230716411078;41.615777828641185
71642;BME280;60657;50.122;14.468;2022-08-11T07:37:34;98996.63991897645;;;26.695658808270395;40.50186923018234
71642;BME280;60657;50.122;14.468;2022-08-11T07:40:43;98990.99729270926;;;27.154955367360955;41.12558175020981
71642;BME280;60657;50.122;14.468;2022-08-11T07:43:54;98985.88802888022;;;26.96269169146258;40.263447013046466
71642;BME280;60657;50.122;14.468;2022-08-11T07:47:04;98976.89865506116;;;26.93331807431143;40.88715953307393
71642;BME280;60657;50.122;14.468;2022-08-11T07:50:12;98983.33340033883;;;27.064164187075605;41.14465552758068
71642;BME280;60657;50.122;14.468;2022-08-11T07:53:22;98986.80006268833;;;27.520790417334254;41.02258335240711
71642;BME280;60657;50.122;14.468;2022-08-11T07:56:31;98981.11929932385;;;27.229724574654767;40.86045624475471
71642;BME280;60657;50.122;14.468;2022-08-11T07:59:41;98978.97394112103;;;27.381933318074317;40.78988326848249
71642;BME280;60657;50.122;14.468;2022-08-11T08:02:50;98984.57761870082;;;27.536812390325778;40.34927901121538
71642;BME280;60657;50.122;14.468;2022-08-11T08:06:00;98977.14657579486;;;27.45670252536813;40.35881589990082
71642;BME280;60657;50.122;14.468;2022-08-11T08:09:08;98974.16781506498;;;27.691691462577253;40.412222476539256
71642;BME280;60657;50.122;14.468;2022-08-11T08:12:19;98971.04056902675;;;27.539482719157704;39.71602960250248
71642;BME280;60657;50.122;14.468;2022-08-11T08:15:29;98981.85825035481;;;27.136263065537506;39.9925993743801
71642;BME280;60657;50.122;14.468;2022-08-11T08:18:38;98977.39858667838;;;27.622262912947278;40.14709697108415
71642;BME280;60657;50.122;14.468;2022-08-11T08:21:47;98966.41223882504;;;27.643625543602653;40.21766994735638
71642;BME280;60657;50.122;14.468;2022-08-11T08:24:57;98969.2405654667;;;27.35523002975509;39.365072098878464
71642;BME280;60657;50.122;14.468;2022-08-11T08:28:08;98969.49611022514;;;27.216372930495154;39.56725413900969
71642;BME280;60657;50.122;14.468;2022-08-11T08:31:19;98969.2405654667;;;27.443350881208517;40.347371633478296
71642;BME280;60657;50.122;14.468;2022-08-11T08:34:28;98965.98643965794;;;27.699702449073015;40.017395284962234
71642;BME280;60657;50.122;14.468;2022-08-11T08:37:37;98973.36144680378;;;27.54215304798963;39.674067292286566
71642;BME280;60657;50.122;14.468;2022-08-11T08:40:45;98967.50854742703;;;27.37392233157854;39.54055085069047
71642;BME280;60657;50.122;14.468;2022-08-11T08:44:00;98965.86736782218;;;27.032120241092542;40.26535439078355
71642;BME280;60657;50.122;14.468;2022-08-11T08:47:15;98969.24832494037;;;27.320515754940104;39.849546044098574
71642;BME280;60657;50.122;14.468;2022-08-11T08:50:26;98975.00982122132;;;27.429999237048904;39.15716792553597
71642;BME280;60657;50.122;14.468;2022-08-11T08:53:40;98970.5534308466;;;27.309834439612416;39.48332951857786
71642;BME280;60657;50.122;14.468;2022-08-11T08:56:55;98962.34853415935;;;27.729076066224152;39.298313878080414
71642;BME280;60657;50.122;14.468;2022-08-11T09:00:05;98973.44511932334;;;27.448691538872353;37.82200350957503
71642;BME280;60657;50.122;14.468;2022-08-11T09:03:16;98979.46649157263;;;27.11490043488213;38.23018234531167
71642;BME280;60657;50.122;14.468;2022-08-11T09:06:25;98964.22001619313;;;27.259098191805904;37.96124208438239
71642;BME280;60657;50.122;14.468;2022-08-11T09:09:38;98962.292238741;;;27.61158159761959;38.98931868467231
71642;BME280;60657;50.122;14.468;2022-08-11T09:12:49;98962.48368130489;;;27.851911192492565;37.44625009536889
71642;BME280;60657;50.122;14.468;2022-08-11T09:15:59;98957.14593599914;;;28.02014190890364;36.91981383993286
71642;BME280;60657;50.122;14.468;2022-08-11T09:19:08;98956.54412992128;;;27.905317769131003;37.060959792477306
71642;BME280;60657;50.122;14.468;2022-08-11T09:22:19;98946.51121711463;;;28.450064850843063;37.24216067750057
71642;BME280;60657;50.122;14.468;2022-08-11T09:25:29;98933.79902629404;;;28.823910887312124;35.48737315938048
71642;BME280;60657;50.122;14.468;2022-08-11T09:28:41;98934.4490620687;;;28.653009842069125;35.163118944075684
71642;BME280;60657;50.122;14.468;2022-08-11T09:31:51;98933.71122233653;;;28.337911039902338;34.482185091935605
71642;BME280;60657;50.122;14.468;2022-08-11T09:35:00;98928.59124023336;;;28.212405584802013;35.222247653925386
71642;BME280;60657;50.122;14.468;2022-08-11T09:38:11;98930.05471906989;;;28.65568017090105;35.07728694590677
71642;BME280;60657;50.122;14.468;2022-08-11T09:41:23;98916.73757359896;;;28.92004272526131;33.48271915770199
71642;BME280;60657;50.122;14.468;2022-08-11T09:44:32;98920.52443094426;;;28.85862516212711;34.1884489204242
71642;BME280;60657;50.122;14.468;2022-08-11T09:47:41;98921.0841781185;;;28.703746089875636;33.84130617227436
71642;BME280;60657;50.122;14.468;2022-08-11T09:50:52;98906.64416293097;;;28.554207675288012;33.56664377813382
71642;BME280;60657;50.122;14.468;2022-08-11T09:54:03;98908.36988345464;;;28.706416418707562;34.762569619287405
71642;BME280;60657;50.122;14.468;2022-08-11T09:57:12;98908.05010570065;;;29.296559090562297;33.50751506828412
71642;BME280;60657;50.122;14.468;2022-08-11T10:00:26;98897.12725110754;;;29.993514915693908;33.03257801174945
71642;BME280;60657;50.122;14.468;2022-08-11T10:03:36;98883.07668804131;;;30.054932478828107;32.38406958113985
71642;BME280;60657;50.122;14.468;2022-08-11T10:06:51;98877.11537764137;;;30.548943312733655;32.01403830014496
71642;BME280;60657;50.122;14.468;2022-08-11T10:10:02;98873.31001616332;;;30.57030594338903;30.91920347905699
71642;BME280;60657;50.122;14.468;2022-08-11T10:13:12;98872.89234358804;;;30.43678950179293;30.419470511940183
71642;BME280;60657;50.122;14.468;2022-08-11T10:16:25;98868.02917806564;;;31.034943160143442;30.457618066681924
71642;BME280;60657;50.122;14.468;2022-08-11T10:19:36;98869.77659547144;;;30.572976272220956;29.170138094148164
71642;BME280;60657;50.122;14.468;2022-08-11T10:22:46;98862.6191428285;;;30.36736095216297;29.877775234607462
71642;BME280;60657;50.122;14.468;2022-08-11T10:25:54;98864.2876078855;;;30.89608606088349;29.975051499198898
71642;BME280;60657;50.122;14.468;2022-08-11T10:29:03;98859.52702343305;;;31.526283665217065;29.515373464560923
71642;BME280;60657;50.122;14.468;2022-08-11T10:32:13;98862.2814961905;;;31.189822232394903;29.37232013427939
71642;BME280;60657;50.122;14.468;2022-08-11T10:35:29;98848.78690246961;;;31.638437476157776;29.919737544823377
71642;BME280;60657;50.122;14.468;2022-08-11T10:38:39;98846.92150815681;;;31.7265583276112;29.440985732814525
71642;BME280;60657;50.122;14.468;2022-08-11T10:41:48;98846.97586641622;;;31.774624246585788;28.91264209964141
71642;BME280;60657;50.122;14.468;2022-08-11T10:44:58;98843.23280065545;;;31.37674525062944;30.076142519264515
71642;BME280;60657;50.122;14.468;2022-08-11T10:48:11;98849.26552117996;;;31.491569390402077;29.294117647058826
71642;BME280;60657;50.122;14.468;2022-08-11T10:51:19;98843.190896682;;;30.96284428168154;30.064698252841993
71642;BME280;60657;50.122;14.468;2022-08-11T10:54:27;98841.47911256425;;;30.21515220874342;31.281605249103535
71642;BME280;60657;50.122;14.468;2022-08-11T10:57:36;98838.51533225564;;;29.817273212787057;31.514305333028155
71642;BME280;60657;50.122;14.468;2022-08-11T11:00:45;98834.0921249396;;;29.681086442359046;32.056000610360876
71642;BME280;60657;50.122;14.468;2022-08-11T11:03:54;98830.61247966626;;;30.014877546349283;31.783245593957425
71642;BME280;60657;50.122;14.468;2022-08-11T11:07:07;98841.65066797292;;;29.403372243839172;32.746471351186386
71642;BME280;60657;50.122;14.468;2022-08-11T11:10:24;98846.67140856005;;;28.855954833295186;33.23285267414359
71642;BME280;60657;50.122;14.468;2022-08-11T11:13:32;98851.33829645475;;;28.193713282978564;34.81216144045167
71642;BME280;60657;50.122;14.468;2022-08-11T11:16:43;98844.38973416525;;;28.188372625314713;35.11161974517434
71642;BME280;60657;50.122;14.468;2022-08-11T11:19:52;98850.42501288811;;;27.974746318760964;35.836423285267415
71642;BME280;60657;50.122;14.468;2022-08-11T11:23:06;98849.03398646424;;;28.43671320668345;34.05111772335393
71642;BME280;60657;50.122;14.468;2022-08-11T11:26:30;98838.76789921577;;;28.610284580758375;32.885709925993744
71642;BME280;60657;50.122;14.468;2022-08-11T11:29:52;98843.62959489292;;;29.000152590218974;33.22713054093233
71642;BME280;60657;50.122;14.468;2022-08-11T11:33:12;98833.07680503937;;;29.208438239108872;31.78133821622034
71642;BME280;60657;50.122;14.468;2022-08-11T11:36:30;98833.28373321536;;;28.91470206759746;32.20859082932784
71642;BME280;60657;50.122;14.468;2022-08-11T11:39:52;98833.5176609935;;;28.839932860303648;31.38651102464332
71642;BME280;60657;50.122;14.468;2022-08-11T11:43:02;98840.35977868094;;;28.377965972381176;32.19714656290532
71642;BME280;60657;50.122;14.468;2022-08-11T11:46:11;98831.39079060795;;;28.506141756313426;33.669642175936524
71642;BME280;60657;50.122;14.468;2022-08-11T11:49:21;98825.73927448121;;;29.069581139848935;31.726024261844813
71642;BME280;60657;50.122;14.468;2022-08-11T11:52:32;98820.68552006129;;;29.28587777523461;32.12848096437018
71642;BME280;60657;50.122;14.468;2022-08-11T11:55:42;98821.57251079178;;;29.130998702983135;31.06988632028687
71642;BME280;60657;50.122;14.468;2022-08-11T11:58:52;98823.61294814572;;;28.81055924315251;31.5658045319295